Time;durP1;ratioP1;P1;durP2;ratioP2;P2;SDS_P1;SDS_P2;PMS_P1;PMS_P2;Temp;Humidity;BMP_temperature;BMP_pressure;BME280_temperature;BME280_humidity;BME280_pressure;Samples;Min_cycle;Max_cycle;Signal;HPM_P1;HPM_P2
2022/09/10 00:01:54;;;;;;;0.60;0.60;;;22.40;65.60;;;;;;5040953;28;20199;-69
2022/09/10 00:04:20;;;;;;;1.15;0.70;;;22.40;65.60;;;;;;5041239;28;20606;-69
2022/09/10 00:06:45;;;;;;;0.80;0.70;;;22.40;65.60;;;;;;5040783;28;20661;-69
2022/09/10 00:09:12;;;;;;;0.63;0.52;;;22.40;65.60;;;;;;5032611;28;20195;-69
2022/09/10 00:11:41;;;;;;;0.52;0.45;;;22.40;66.40;;;;;;5023787;28;20289;-69
2022/09/10 00:14:15;;;;;;;0.50;0.40;;;22.40;65.60;;;;;;5040777;28;20201;-69
2022/09/10 00:16:41;;;;;;;0.73;0.68;;;22.40;65.60;;;;;;5024868;28;20215;-69
2022/09/10 00:19:07;;;;;;;0.68;0.57;;;22.40;65.60;;;;;;5024981;28;20195;-69
2022/09/10 00:21:34;;;;;;;1.05;0.68;;;22.40;65.70;;;;;;5023340;28;20211;-70
2022/09/10 00:24:01;;;;;;;0.57;0.50;;;22.40;65.70;;;;;;5024510;28;20219;-69
2022/09/10 00:26:37;;;;;;;0.57;0.50;;;22.40;65.70;;;;;;5024054;28;20222;-69
2022/09/10 00:29:05;;;;;;;0.60;0.60;;;22.40;65.70;;;;;;5024353;28;20182;-69
2022/09/10 00:31:33;;;;;;;0.40;0.40;;;22.40;65.70;;;;;;5023900;28;20345;-68
2022/09/10 00:34:00;;;;;;;0.85;0.52;;;22.40;65.70;;;;;;5024433;28;20175;-69
2022/09/10 00:36:34;;;;;;;1.40;0.70;;;22.40;65.60;;;;;;5024634;28;20298;-69
2022/09/10 00:39:05;;;;;;;0.50;0.50;;;22.40;65.60;;;;;;5024238;28;20266;-69
2022/09/10 00:41:35;;;;;;;0.88;0.60;;;22.40;65.70;;;;;;5023519;28;20613;-69
2022/09/10 00:44:42;;;;;;;1.45;0.60;;;22.40;66.50;;;;;;5024473;28;20193;-69
2022/09/10 00:47:16;;;;;;;0.85;0.40;;;22.40;65.70;;;;;;5023918;28;20187;-69
2022/09/10 00:49:51;;;;;;;0.50;0.47;;;22.40;65.70;;;;;;5024155;28;20187;-69
2022/09/10 00:52:17;;;;;;;0.70;0.50;;;22.40;65.70;;;;;;5038768;28;20214;-69
2022/09/10 00:54:46;;;;;;;0.68;0.68;;;22.40;65.70;;;;;;5040212;28;20187;-69
2022/09/10 00:57:21;;;;;;;0.50;0.50;;;22.40;65.70;;;;;;5039218;28;20619;-69
2022/09/10 01:00:02;;;;;;;0.63;0.60;;;22.40;65.70;;;;;;5023671;28;20204;-68
2022/09/10 01:02:28;;;;;;;0.50;0.50;;;22.40;65.70;;;;;;5021588;28;20229;-70
2022/09/10 01:04:57;;;;;;;0.68;0.68;;;22.40;65.70;;;;;;5021558;28;20183;-70
2022/09/10 01:07:28;;;;;;;0.57;0.47;;;22.40;65.70;;;;;;5021920;28;20214;-70
2022/09/10 01:09:57;;;;;;;0.65;0.60;;;22.40;65.70;;;;;;5021420;28;20222;-70
2022/09/10 01:12:51;;;;;;;0.47;0.47;;;22.40;65.70;;;;;;5021007;28;20237;-69
2022/09/10 01:15:48;;;;;;;0.68;0.57;;;22.40;65.80;;;;;;5027525;28;20283;-69
2022/09/10 01:18:26;;;;;;;0.57;0.57;;;22.40;65.80;;;;;;5038076;28;20207;-70
2022/09/10 01:21:33;;;;;;;0.40;0.40;;;22.40;65.70;;;;;;5037973;28;20207;-69
2022/09/10 01:25:01;;;;;;;0.40;0.40;;;22.40;65.80;;;;;;5036649;28;20237;-70
2022/09/10 01:27:47;;;;;;;0.43;0.43;;;22.40;65.80;;;;;;4962270;28;20219;-69
2022/09/10 01:30:36;;;;;;;0.60;0.60;;;22.40;65.70;;;;;;5033015;28;20215;-70
2022/09/10 01:33:25;;;;;;;0.68;0.50;;;22.40;65.80;;;;;;5037101;28;20183;-69
2022/09/10 01:36:05;;;;;;;0.45;0.40;;;22.40;65.80;;;;;;5037766;28;20179;-70
2022/09/10 01:38:37;;;;;;;0.55;0.55;;;22.40;65.80;;;;;;5034349;28;20214;-70
2022/09/10 01:41:04;;;;;;;0.77;0.47;;;22.40;65.80;;;;;;5029065;28;20214;-70
2022/09/10 01:43:36;;;;;;;1.08;0.40;;;22.40;65.80;;;;;;5023029;28;20183;-69
2022/09/10 01:46:14;;;;;;;0.60;0.60;;;22.40;65.80;;;;;;5039239;28;20254;-70
2022/09/10 01:49:02;;;;;;;0.50;0.30;;;22.40;65.80;;;;;;5038189;28;20180;-70
2022/09/10 01:52:14;;;;;;;0.52;0.43;;;22.40;65.80;;;;;;5021954;28;20699;-69
2022/09/10 01:55:50;;;;;;;0.50;0.40;;;22.40;65.90;;;;;;5018989;28;20180;-70
2022/09/10 01:58:41;;;;;;;1.15;0.60;;;22.40;65.80;;;;;;4962780;28;20512;-70
2022/09/10 02:01:48;;;;;;;0.90;0.60;;;22.40;65.80;;;;;;5003310;28;20675;-70
2022/09/10 02:04:16;;;;;;;0.73;0.40;;;22.40;65.90;;;;;;5019024;28;20187;-70
2022/09/10 02:06:48;;;;;;;0.50;0.50;;;22.30;65.80;;;;;;5034940;28;20191;-70
2022/09/10 02:09:17;;;;;;;0.57;0.50;;;22.30;65.80;;;;;;5024435;28;20183;-70
2022/09/10 02:11:52;;;;;;;0.40;0.40;;;22.40;65.90;;;;;;5020714;28;20209;-70
2022/09/10 02:14:36;;;;;;;0.98;0.63;;;22.30;65.80;;;;;;5039108;28;20271;-70
2022/09/10 02:17:19;;;;;;;0.40;0.32;;;22.30;65.80;;;;;;5024699;28;20282;-70
2022/09/10 02:19:48;;;;;;;0.30;0.30;;;22.40;65.90;;;;;;5021673;28;20201;-70
2022/09/10 02:22:14;;;;;;;0.40;0.40;;;22.40;65.90;;;;;;5021981;28;20179;-70
2022/09/10 02:24:43;;;;;;;1.02;0.50;;;22.30;65.80;;;;;;5038204;28;20179;-70
2022/09/10 02:27:12;;;;;;;0.60;0.50;;;22.30;65.80;;;;;;5021893;28;20627;-70
2022/09/10 02:29:38;;;;;;;0.50;0.50;;;22.30;65.80;;;;;;5022588;28;20198;-69
2022/09/10 02:32:07;;;;;;;0.50;0.45;;;22.40;66.00;;;;;;5037556;28;20322;-70
2022/09/10 02:34:35;;;;;;;0.77;0.40;;;22.40;66.00;;;;;;5038463;28;20183;-70
2022/09/10 02:37:02;;;;;;;0.47;0.47;;;22.30;65.90;;;;;;5021798;28;20198;-70
2022/09/10 02:39:29;;;;;;;0.40;0.40;;;22.30;66.70;;;;;;5028302;28;20195;-70
2022/09/10 02:41:57;;;;;;;0.55;0.40;;;22.40;66.00;;;;;;5037439;28;20179;-70
2022/09/10 02:44:26;;;;;;;0.73;0.52;;;22.40;65.90;;;;;;5037885;28;20179;-70
2022/09/10 02:46:53;;;;;;;0.70;0.70;;;22.30;65.90;;;;;;5037929;28;20191;-70
2022/09/10 02:49:19;;;;;;;0.40;0.40;;;22.30;65.90;;;;;;5021501;28;20183;-70
2022/09/10 02:51:49;;;;;;;0.50;0.50;;;22.40;66.00;;;;;;5020911;28;20203;-69
2022/09/10 02:54:18;;;;;;;0.77;0.55;;;22.30;66.00;;;;;;5019047;28;20179;-70
2022/09/10 02:56:48;;;;;;;0.50;0.50;;;22.30;66.00;;;;;;5032299;28;20222;-70
2022/09/10 02:59:16;;;;;;;0.98;0.70;;;22.30;65.90;;;;;;5037591;28;20181;-70
2022/09/10 03:01:42;;;;;;;0.75;0.60;;;22.30;65.90;;;;;;5021119;28;20234;-70
2022/09/10 03:04:08;;;;;;;0.63;0.57;;;22.30;66.80;;;;;;5020907;28;20206;-70
2022/09/10 03:06:35;;;;;;;0.45;0.40;;;22.30;65.90;;;;;;5020896;28;20274;-70
2022/09/10 03:09:03;;;;;;;0.40;0.40;;;22.30;66.00;;;;;;5021210;28;20187;-70
2022/09/10 03:11:30;;;;;;;0.50;0.50;;;22.30;65.90;;;;;;5020306;28;20265;-69
2022/09/10 03:13:57;;;;;;;0.43;0.43;;;22.30;66.00;;;;;;5020285;28;20187;-69
2022/09/10 03:16:23;;;;;;;0.50;0.50;;;22.30;66.00;;;;;;5023046;28;20211;-69
2022/09/10 03:18:50;;;;;;;0.60;0.40;;;22.30;66.00;;;;;;5024883;28;20198;-70
2022/09/10 03:21:20;;;;;;;1.23;0.50;;;22.30;66.00;;;;;;5023978;28;20199;-70
2022/09/10 03:23:49;;;;;;;1.00;0.63;;;22.30;66.10;;;;;;5024432;28;20175;-70
2022/09/10 03:26:21;;;;;;;0.60;0.50;;;22.30;66.10;;;;;;5025567;28;20183;-69
2022/09/10 03:28:48;;;;;;;0.38;0.38;;;22.30;66.10;;;;;;5024941;28;20271;-69
2022/09/10 03:31:17;;;;;;;0.57;0.40;;;22.30;66.00;;;;;;5024530;28;20695;-69
2022/09/10 03:33:46;;;;;;;0.70;0.40;;;22.30;66.10;;;;;;5025947;28;20210;-70
2022/09/10 03:36:13;;;;;;;0.30;0.30;;;22.30;66.10;;;;;;5024963;28;20266;-70
2022/09/10 03:38:41;;;;;;;0.30;0.30;;;22.30;66.10;;;;;;5022383;28;20192;-70
2022/09/10 03:41:07;;;;;;;0.40;0.40;;;22.30;66.10;;;;;;5023544;28;20211;-69
2022/09/10 03:43:33;;;;;;;0.52;0.40;;;22.30;66.10;;;;;;5025023;28;20302;-70
2022/09/10 03:46:04;;;;;;;1.10;0.50;;;22.30;66.10;;;;;;5040919;28;20182;-70
2022/09/10 03:48:30;;;;;;;0.85;0.60;;;22.30;66.10;;;;;;5025371;28;20209;-70
2022/09/10 03:50:56;;;;;;;0.68;0.65;;;22.30;66.10;;;;;;5041131;28;20207;-70
2022/09/10 03:53:22;;;;;;;0.85;0.50;;;22.30;66.20;;;;;;5041338;28;20183;-70
2022/09/10 03:55:50;;;;;;;0.85;0.50;;;22.30;66.20;;;;;;5040940;28;20257;-70
2022/09/10 03:58:18;;;;;;;0.55;0.40;;;22.30;66.20;;;;;;5040788;28;20211;-70
2022/09/10 04:00:45;;;;;;;0.32;0.32;;;22.30;66.20;;;;;;5040849;28;20203;-70
2022/09/10 04:03:11;;;;;;;0.50;0.50;;;22.30;66.20;;;;;;5023550;28;20566;-70
2022/09/10 04:05:45;;;;;;;0.52;0.40;;;22.30;66.20;;;;;;5040869;28;20210;-70
2022/09/10 04:08:13;;;;;;;1.00;0.68;;;22.30;66.20;;;;;;5036852;28;20200;-70
2022/09/10 04:10:41;;;;;;;0.85;0.60;;;22.30;66.20;;;;;;5037361;28;20205;-69
2022/09/10 04:13:08;;;;;;;0.30;0.30;;;22.30;66.20;;;;;;5022888;28;20191;-70
2022/09/10 04:15:36;;;;;;;0.60;0.40;;;22.30;66.20;;;;;;5023286;28;20187;-70
2022/09/10 04:18:04;;;;;;;0.40;0.40;;;22.30;66.30;;;;;;5024379;28;20713;-70
2022/09/10 04:20:32;;;;;;;0.40;0.40;;;22.30;66.20;;;;;;5023946;28;20211;-70
2022/09/10 04:23:08;;;;;;;0.70;0.50;;;22.30;66.20;;;;;;5040551;28;20193;-69
2022/09/10 04:25:35;;;;;;;0.38;0.32;;;22.30;66.20;;;;;;5040916;28;20187;-70
2022/09/10 04:28:02;;;;;;;0.45;0.45;;;22.30;66.20;;;;;;5025702;28;20179;-70
2022/09/10 04:30:29;;;;;;;0.40;0.30;;;22.30;66.20;;;;;;5041045;28;20214;-70
2022/09/10 04:32:55;;;;;;;0.50;0.50;;;22.30;66.20;;;;;;5040472;28;20187;-70
2022/09/10 04:35:21;;;;;;;0.50;0.50;;;22.30;66.30;;;;;;5040737;28;20187;-70
2022/09/10 04:37:47;;;;;;;0.50;0.50;;;22.30;66.30;;;;;;5040219;28;20256;-69
2022/09/10 04:40:13;;;;;;;0.30;0.30;;;22.30;66.30;;;;;;5023628;28;20298;-70
2022/09/10 04:42:39;;;;;;;0.70;0.70;;;22.30;66.40;;;;;;5023264;28;20259;-70
2022/09/10 04:45:06;;;;;;;1.15;0.40;;;22.30;66.30;;;;;;5023584;28;20206;-70
2022/09/10 04:47:33;;;;;;;0.38;0.38;;;22.30;66.40;;;;;;5023429;28;20206;-70
2022/09/10 04:49:59;;;;;;;0.60;0.60;;;22.30;66.30;;;;;;5040227;28;20239;-70
2022/09/10 04:52:26;;;;;;;0.50;0.50;;;22.30;66.40;;;;;;5039393;28;20186;-70
2022/09/10 04:54:52;;;;;;;0.50;0.50;;;22.30;66.40;;;;;;5039972;28;20188;-70
2022/09/10 04:57:18;;;;;;;1.05;0.68;;;22.30;66.40;;;;;;5039843;28;20211;-69
2022/09/10 04:59:45;;;;;;;1.42;0.57;;;22.30;66.40;;;;;;5040236;28;20187;-70
2022/09/10 05:02:12;;;;;;;0.30;0.30;;;22.30;66.40;;;;;;5038933;28;20182;-70
2022/09/10 05:04:38;;;;;;;0.40;0.40;;;22.30;66.40;;;;;;5023122;28;20187;-70
2022/09/10 05:07:04;;;;;;;0.45;0.38;;;22.30;66.40;;;;;;5041213;28;20201;-70
2022/09/10 05:09:32;;;;;;;0.47;0.40;;;22.30;66.40;;;;;;5028529;28;20191;-70
2022/09/10 05:12:00;;;;;;;0.40;0.40;;;22.30;66.40;;;;;;5023670;28;20210;-69
2022/09/10 05:14:28;;;;;;;0.60;0.60;;;22.30;66.40;;;;;;5023076;28;20179;-70
2022/09/10 05:16:54;;;;;;;0.50;0.50;;;22.30;66.40;;;;;;5023499;28;20238;-70
2022/09/10 05:19:20;;;;;;;1.80;0.40;;;22.20;67.00;;;;;;5023823;28;20199;-70
2022/09/10 05:21:58;;;;;;;0.50;0.50;;;22.30;66.40;;;;;;5040637;28;20186;-70
2022/09/10 05:24:26;;;;;;;0.70;0.70;;;22.30;66.40;;;;;;5038921;28;20197;-70
2022/09/10 05:26:52;;;;;;;1.20;0.32;;;22.20;66.20;;;;;;5022666;28;20179;-70
2022/09/10 05:29:18;;;;;;;0.40;0.40;;;22.20;66.20;;;;;;5023459;28;20199;-70
2022/09/10 05:31:43;;;;;;;0.40;0.40;;;22.20;66.20;;;;;;5021658;28;20214;-69
2022/09/10 05:34:09;;;;;;;0.50;0.50;;;22.20;66.30;;;;;;5022874;28;20187;-70
2022/09/10 05:36:36;;;;;;;0.50;0.50;;;22.20;66.30;;;;;;5022677;28;20226;-70
2022/09/10 05:39:03;;;;;;;0.52;0.40;;;22.20;66.30;;;;;;5038877;28;20194;-70
2022/09/10 05:41:33;;;;;;;0.47;0.47;;;22.20;66.30;;;;;;5021703;28;20191;-70
2022/09/10 05:44:00;;;;;;;0.63;0.63;;;22.20;66.30;;;;;;5039368;28;20230;-70
2022/09/10 05:46:29;;;;;;;0.50;0.35;;;22.20;66.30;;;;;;5041691;28;20183;-71
2022/09/10 05:48:58;;;;;;;0.98;0.60;;;22.20;66.30;;;;;;5044169;28;20262;-70
2022/09/10 05:51:28;;;;;;;0.30;0.30;;;22.20;66.30;;;;;;5038706;28;20211;-70
2022/09/10 05:53:56;;;;;;;0.80;0.50;;;22.20;66.40;;;;;;5038899;28;20183;-69
2022/09/10 05:56:24;;;;;;;0.50;0.50;;;22.20;66.30;;;;;;5038858;28;20253;-70
2022/09/10 05:58:50;;;;;;;0.50;0.50;;;22.20;66.30;;;;;;5029256;28;20198;-70
2022/09/10 06:01:17;;;;;;;0.60;0.60;;;22.20;66.30;;;;;;5022320;28;20195;-70
2022/09/10 06:03:43;;;;;;;0.60;0.60;;;22.20;66.30;;;;;;5022372;28;20202;-71
2022/09/10 06:06:10;;;;;;;0.70;0.40;;;22.20;66.30;;;;;;5037284;28;20241;-71
2022/09/10 06:08:40;;;;;;;0.55;0.50;;;22.20;66.40;;;;;;5052609;28;20183;-71
2022/09/10 06:11:21;;;;;;;0.90;0.60;;;22.20;66.40;;;;;;5021931;28;20207;-70
2022/09/10 06:13:49;;;;;;;1.00;0.60;;;22.30;66.60;;;;;;5020941;28;20663;-71
2022/09/10 06:16:16;;;;;;;0.50;0.50;;;22.20;66.40;;;;;;5020135;28;20183;-71
2022/09/10 06:18:44;;;;;;;0.75;0.70;;;22.20;66.40;;;;;;5020979;28;20199;-71
2022/09/10 06:21:18;;;;;;;0.57;0.52;;;22.20;66.40;;;;;;5036214;28;20203;-71
2022/09/10 06:23:53;;;;;;;0.70;0.45;;;22.20;66.50;;;;;;5020120;28;20167;-70
2022/09/10 06:26:20;;;;;;;0.43;0.43;;;22.20;66.40;;;;;;5051781;28;20179;-70
2022/09/10 06:28:48;;;;;;;0.40;0.40;;;22.20;66.40;;;;;;5016116;28;20191;-71
2022/09/10 06:31:18;;;;;;;0.40;0.40;;;22.20;66.40;;;;;;5010608;28;20293;-71
2022/09/10 06:33:47;;;;;;;0.57;0.45;;;22.20;66.40;;;;;;5019878;28;20202;-71
2022/09/10 06:36:16;;;;;;;1.25;0.75;;;22.20;66.40;;;;;;5052301;28;20171;-71
2022/09/10 06:38:45;;;;;;;0.40;0.40;;;22.20;66.50;;;;;;5020147;28;20233;-71
2022/09/10 06:41:14;;;;;;;0.50;0.50;;;22.20;66.50;;;;;;5020000;28;20195;-71
2022/09/10 06:43:46;;;;;;;0.30;0.30;;;22.20;66.50;;;;;;5037285;28;20208;-71
2022/09/10 06:46:22;;;;;;;0.57;0.57;;;22.20;66.50;;;;;;5029226;28;20186;-70
2022/09/10 06:49:01;;;;;;;0.65;0.43;;;22.20;66.50;;;;;;5036602;28;20175;-71
2022/09/10 06:51:32;;;;;;;0.63;0.60;;;22.30;66.70;;;;;;5015692;28;20195;-71
2022/09/10 06:53:59;;;;;;;0.70;0.55;;;22.20;66.60;;;;;;5046983;28;20186;-71
2022/09/10 06:56:26;;;;;;;1.10;0.50;;;22.20;66.50;;;;;;5030314;28;20175;-71
2022/09/10 06:58:53;;;;;;;0.60;0.45;;;22.20;66.60;;;;;;5032478;28;20178;-71
2022/09/10 07:01:22;;;;;;;0.40;0.40;;;22.20;66.60;;;;;;5015434;28;20199;-71
2022/09/10 07:04:00;;;;;;;1.52;0.50;;;22.20;66.60;;;;;;5021989;28;20210;-71
2022/09/10 07:06:32;;;;;;;0.70;0.40;;;22.20;66.60;;;;;;5020304;28;20171;-71
2022/09/10 07:09:04;;;;;;;0.50;0.47;;;22.20;66.60;;;;;;5021161;28;20213;-71
2022/09/10 07:11:34;;;;;;;0.50;0.50;;;22.30;66.70;;;;;;5020040;28;20218;-70
2022/09/10 07:14:02;;;;;;;1.08;0.40;;;22.30;66.70;;;;;;5037278;28;20191;-70
2022/09/10 07:16:34;;;;;;;0.65;0.60;;;22.30;66.70;;;;;;5020497;28;20179;-71
2022/09/10 07:18:59;;;;;;;0.63;0.40;;;22.20;66.50;;;;;;5019955;28;20272;-71
2022/09/10 07:21:39;;;;;;;0.63;0.60;;;22.20;66.50;;;;;;5021681;28;20206;-71
2022/09/10 07:24:13;;;;;;;0.50;0.50;;;22.20;66.60;;;;;;5019713;28;20183;-71
2022/09/10 07:26:44;;;;;;;0.68;0.40;;;22.20;66.50;;;;;;5036534;28;20183;-71
2022/09/10 07:29:10;;;;;;;0.55;0.45;;;22.20;66.50;;;;;;5020082;28;20237;-71
2022/09/10 07:31:37;;;;;;;0.93;0.60;;;22.20;66.50;;;;;;5020334;28;20211;-70
2022/09/10 07:34:11;;;;;;;0.60;0.60;;;22.30;66.70;;;;;;5021026;28;20219;-71
2022/09/10 07:36:37;;;;;;;0.50;0.50;;;22.30;66.60;;;;;;5019397;28;20187;-71
2022/09/10 07:39:04;;;;;;;0.50;0.50;;;22.30;66.50;;;;;;5020109;28;20215;-71
2022/09/10 07:41:35;;;;;;;0.80;0.80;;;22.30;66.50;;;;;;5020454;28;20195;-70
2022/09/10 07:44:02;;;;;;;0.68;0.57;;;22.30;66.50;;;;;;5020748;28;20180;-71
2022/09/10 07:46:36;;;;;;;0.50;0.50;;;22.30;66.50;;;;;;5022038;28;20179;-71
2022/09/10 07:49:04;;;;;;;0.57;0.52;;;22.30;66.40;;;;;;5020474;28;20183;-70
2022/09/10 07:51:33;;;;;;;0.55;0.55;;;22.20;66.20;;;;;;5019963;28;20214;-70
2022/09/10 07:54:00;;;;;;;0.40;0.40;;;22.20;66.30;;;;;;5019745;28;20192;-70
2022/09/10 07:56:35;;;;;;;1.33;0.45;;;22.30;66.50;;;;;;5036335;28;20167;-70
2022/09/10 07:59:04;;;;;;;1.05;0.60;;;22.30;66.60;;;;;;5035797;28;20179;-70
2022/09/10 08:01:36;;;;;;;0.50;0.50;;;22.20;66.50;;;;;;5022295;28;20679;-71
2022/09/10 08:04:04;;;;;;;0.60;0.60;;;22.20;66.50;;;;;;5023144;28;20179;-72
2022/09/10 08:06:31;;;;;;;1.17;0.63;;;22.20;66.50;;;;;;5022837;28;20232;-71
2022/09/10 08:08:58;;;;;;;0.57;0.50;;;22.20;66.40;;;;;;5039190;28;20179;-71
2022/09/10 08:11:26;;;;;;;0.70;0.70;;;22.30;66.60;;;;;;5038358;28;20226;-71
2022/09/10 08:13:57;;;;;;;0.80;0.40;;;22.30;66.50;;;;;;5022576;28;20213;-71
2022/09/10 08:16:27;;;;;;;0.85;0.60;;;22.30;66.40;;;;;;5016502;28;20211;-71
2022/09/10 08:18:56;;;;;;;0.93;0.70;;;22.30;66.40;;;;;;5039871;28;20277;-70
2022/09/10 08:21:24;;;;;;;0.98;0.50;;;22.30;66.40;;;;;;5024016;28;20199;-71
2022/09/10 08:23:53;;;;;;;0.65;0.63;;;22.30;66.50;;;;;;5023592;28;20183;-71
2022/09/10 08:26:22;;;;;;;0.52;0.50;;;22.30;66.40;;;;;;5023140;28;20210;-71
2022/09/10 08:28:55;;;;;;;0.90;0.60;;;22.30;66.40;;;;;;5040394;28;20184;-71
2022/09/10 08:31:26;;;;;;;0.75;0.75;;;22.30;66.40;;;;;;5024015;28;20248;-71
2022/09/10 08:33:57;;;;;;;0.55;0.50;;;22.30;66.40;;;;;;5024456;28;20179;-71
2022/09/10 08:36:25;;;;;;;0.60;0.60;;;22.30;66.40;;;;;;5004610;28;20214;-71
2022/09/10 08:38:53;;;;;;;0.40;0.40;;;22.30;66.40;;;;;;5010664;28;20186;-71
2022/09/10 08:41:40;;;;;;;0.60;0.60;;;22.30;66.40;;;;;;5040005;28;20699;-71
2022/09/10 08:44:32;;;;;;;0.65;0.65;;;22.30;66.40;;;;;;5025186;28;20191;-71
2022/09/10 08:47:05;;;;;;;0.50;0.50;;;22.30;66.40;;;;;;5023644;28;20270;-71
2022/09/10 08:49:52;;;;;;;0.68;0.40;;;22.30;66.40;;;;;;5023432;28;20199;-73
2022/09/10 08:52:32;;;;;;;1.65;0.70;;;22.30;66.20;;;;;;5015709;28;20592;-70
2022/09/10 08:55:17;;;;;;;0.55;0.40;;;22.30;66.50;;;;;;5037047;28;20179;-71
2022/09/10 08:58:02;;;;;;;1.45;0.68;;;22.40;66.50;;;;;;5035741;28;20206;-73
2022/09/10 09:00:36;;;;;;;2.22;0.75;;;22.40;66.50;;;;;;5021191;28;20219;-72
2022/09/10 09:03:36;;;;;;;2.40;0.60;;;22.30;66.40;;;;;;5039821;28;20206;-73
2022/09/10 09:06:11;;;;;;;0.75;0.40;;;22.30;66.40;;;;;;5038038;28;20179;-72
2022/09/10 09:08:47;;;;;;;0.98;0.60;;;22.30;66.40;;;;;;5019497;28;20176;-72
2022/09/10 09:11:53;;;;;;;1.42;0.60;;;22.30;66.30;;;;;;5054849;28;20274;-72
2022/09/10 09:15:16;;;;;;;0.60;0.60;;;22.20;66.20;;;;;;5020973;28;20195;-72
2022/09/10 09:18:14;;;;;;;0.70;0.70;;;22.30;65.70;;;;;;5014740;28;20246;-71
2022/09/10 09:20:45;;;;;;;2.65;1.00;;;22.20;65.20;;;;;;5020990;28;20199;-72
2022/09/10 09:23:50;;;;;;;3.22;1.20;;;22.20;65.30;;;;;;5037722;28;20184;-72
2022/09/10 09:26:18;;;;;;;5.93;0.95;;;22.30;65.40;;;;;;5040095;28;20270;-72
2022/09/10 09:29:16;;;;;;;4.07;0.88;;;22.30;65.60;;;;;;5023265;28;20180;-72
2022/09/10 09:31:52;;;;;;;5.70;0.80;;;22.30;65.70;;;;;;5021823;28;20214;-72
2022/09/10 09:34:42;;;;;;;8.75;1.55;;;22.30;65.90;;;;;;5018980;28;20213;-71
2022/09/10 09:37:20;;;;;;;3.53;0.80;;;22.40;66.20;;;;;;5022764;28;20206;-70
2022/09/10 09:40:11;;;;;;;1.58;0.80;;;22.40;66.00;;;;;;5022283;28;20190;-71
2022/09/10 09:43:08;;;;;;;1.98;0.70;;;22.40;66.00;;;;;;5022311;28;20172;-70
2022/09/10 09:45:42;;;;;;;3.78;0.75;;;22.40;66.00;;;;;;5024001;28;20175;-70
2022/09/10 09:48:14;;;;;;;1.88;0.63;;;22.40;65.90;;;;;;5041131;28;20183;-71
2022/09/10 09:50:46;;;;;;;1.80;0.60;;;22.40;65.70;;;;;;5022004;28;20221;-71
2022/09/10 09:53:20;;;;;;;3.70;0.93;;;22.40;65.70;;;;;;5038222;28;20187;-71
2022/09/10 09:55:53;;;;;;;1.55;0.60;;;22.40;65.80;;;;;;5038534;28;20178;-70
2022/09/10 09:58:22;;;;;;;1.40;0.82;;;22.40;65.70;;;;;;5033908;28;20223;-70
2022/09/10 10:01:08;;;;;;;1.98;0.80;;;22.40;65.80;;;;;;5021021;28;20345;-70
2022/09/10 10:04:04;;;;;;;0.95;0.70;;;22.40;65.70;;;;;;5020831;28;20210;-70
2022/09/10 10:06:46;;;;;;;4.63;0.90;;;22.40;65.60;;;;;;5021287;28;20207;-71
2022/09/10 10:09:25;;;;;;;3.20;0.90;;;22.50;66.00;;;;;;5022140;28;20180;-71
2022/09/10 10:11:58;;;;;;;2.05;0.70;;;22.50;65.90;;;;;;5037685;28;20206;-71
2022/09/10 10:14:36;;;;;;;2.25;0.55;;;22.40;65.80;;;;;;5037601;28;20210;-71
2022/09/10 10:17:40;;;;;;;1.27;0.60;;;22.40;65.90;;;;;;5037611;28;20199;-70
2022/09/10 10:20:15;;;;;;;1.08;0.50;;;22.50;66.00;;;;;;5016080;28;20223;-70
2022/09/10 10:22:47;;;;;;;0.95;0.80;;;22.50;65.80;;;;;;5000805;28;20175;-71
2022/09/10 10:25:40;;;;;;;2.65;0.60;;;22.50;65.80;;;;;;5001047;28;20188;-70
2022/09/10 10:28:25;;;;;;;2.50;0.57;;;22.40;65.70;;;;;;5005491;28;20282;-70
2022/09/10 10:30:54;;;;;;;0.68;0.63;;;22.40;65.60;;;;;;5037028;28;20307;-71
2022/09/10 10:33:27;;;;;;;1.52;0.60;;;22.40;65.70;;;;;;5037321;28;20206;-71
2022/09/10 10:36:21;;;;;;;0.32;0.32;;;22.40;65.70;;;;;;5021559;28;20662;-71
2022/09/10 10:39:29;;;;;;;0.68;0.63;;;22.40;65.60;;;;;;5038215;28;20222;-71
2022/09/10 10:42:20;;;;;;;1.90;0.60;;;22.50;65.80;;;;;;5021024;28;20230;-71
2022/09/10 10:45:15;;;;;;;1.05;0.70;;;22.40;65.50;;;;;;5020216;28;20183;-70
2022/09/10 10:48:00;;;;;;;1.38;0.55;;;22.50;65.90;;;;;;5019863;28;20566;-71
2022/09/10 10:51:00;;;;;;;1.48;0.70;;;22.40;65.70;;;;;;5037532;28;20210;-70
2022/09/10 10:53:57;;;;;;;0.93;0.50;;;22.50;65.90;;;;;;5020203;28;20218;-70
2022/09/10 10:56:39;;;;;;;1.48;0.57;;;22.40;65.80;;;;;;5018755;28;20187;-70
2022/09/10 10:59:44;;;;;;;1.02;0.47;;;22.40;65.90;;;;;;5026043;28;20250;-70
2022/09/10 11:02:29;;;;;;;0.40;0.40;;;22.40;66.00;;;;;;5009007;28;20183;-70
2022/09/10 11:05:01;;;;;;;1.45;0.70;;;22.40;66.00;;;;;;5036092;28;20187;-70
2022/09/10 11:07:40;;;;;;;1.58;0.70;;;22.40;65.90;;;;;;5018030;28;20184;-71
2022/09/10 11:10:28;;;;;;;1.08;0.40;;;22.40;66.10;;;;;;4996275;28;20207;-70
2022/09/10 11:13:08;;;;;;;0.60;0.60;;;22.40;66.00;;;;;;4996762;28;20219;-69
2022/09/10 11:15:58;;;;;;;0.75;0.40;;;22.50;66.10;;;;;;4997254;28;20191;-70
2022/09/10 11:18:35;;;;;;;2.15;0.77;;;22.50;66.10;;;;;;5013303;28;20215;-70
2022/09/10 11:21:19;;;;;;;1.42;0.52;;;22.50;66.10;;;;;;5013876;28;20207;-70
2022/09/10 11:24:17;;;;;;;0.68;0.52;;;22.50;66.10;;;;;;4997856;28;20188;-69
2022/09/10 11:27:10;;;;;;;0.70;0.45;;;22.40;65.90;;;;;;4998470;28;20536;-69
2022/09/10 11:30:04;;;;;;;0.82;0.50;;;22.40;65.90;;;;;;5016871;28;20199;-69
2022/09/10 11:32:55;;;;;;;0.98;0.60;;;22.50;66.00;;;;;;4980219;28;20239;-69
2022/09/10 11:36:01;;;;;;;0.50;0.50;;;22.50;66.00;;;;;;5013002;28;20207;-70
2022/09/10 11:39:00;;;;;;;1.92;0.50;;;22.50;66.00;;;;;;5018155;28;20211;-71
2022/09/10 11:41:31;;;;;;;0.65;0.50;;;22.40;66.00;;;;;;5001004;28;20223;-70
2022/09/10 11:44:39;;;;;;;0.80;0.52;;;22.40;66.10;;;;;;5017078;28;20233;-70
2022/09/10 11:47:41;;;;;;;0.70;0.70;;;22.50;66.10;;;;;;5000692;28;20199;-70
2022/09/10 11:50:23;;;;;;;0.93;0.60;;;22.40;66.20;;;;;;5000624;28;20214;-70
2022/09/10 11:52:50;;;;;;;0.80;0.40;;;22.40;66.30;;;;;;5001077;28;20184;-70
2022/09/10 11:55:16;;;;;;;0.95;0.40;;;22.40;66.40;;;;;;5000911;28;20214;-70
2022/09/10 11:58:23;;;;;;;3.42;0.47;;;22.40;66.40;;;;;;5002175;28;20251;-70
2022/09/10 12:01:07;;;;;;;0.82;0.50;;;22.50;66.40;;;;;;5036441;28;20199;-70
2022/09/10 12:03:56;;;;;;;0.55;0.50;;;22.40;66.30;;;;;;5035746;28;20203;-70
2022/09/10 12:06:56;;;;;;;0.50;0.50;;;22.40;66.50;;;;;;5019890;28;20168;-69
2022/09/10 12:10:17;;;;;;;1.75;0.73;;;22.40;66.50;;;;;;5020638;28;20175;-70
2022/09/10 12:12:48;;;;;;;0.60;0.43;;;22.50;66.60;;;;;;5035994;28;20191;-70
2022/09/10 12:15:30;;;;;;;1.42;0.75;;;22.40;66.70;;;;;;5036597;28;20270;-70
2022/09/10 12:18:15;;;;;;;0.80;0.45;;;22.40;66.70;;;;;;5036151;28;20210;-69
2022/09/10 12:20:48;;;;;;;0.40;0.40;;;22.40;66.80;;;;;;5019523;28;20670;-70
2022/09/10 12:23:27;;;;;;;0.70;0.60;;;22.40;66.70;;;;;;5018702;28;20179;-69
2022/09/10 12:26:00;;;;;;;0.68;0.68;;;22.40;66.70;;;;;;5036228;28;20171;-70
2022/09/10 12:28:51;;;;;;;0.38;0.38;;;22.40;66.70;;;;;;5019812;28;20183;-70
2022/09/10 12:31:20;;;;;;;0.50;0.50;;;22.40;66.60;;;;;;5012475;28;20210;-69
2022/09/10 12:33:46;;;;;;;1.02;0.47;;;22.40;66.70;;;;;;5018955;28;20291;-70
2022/09/10 12:36:27;;;;;;;0.50;0.50;;;22.40;66.70;;;;;;5020471;28;20218;-70
2022/09/10 12:39:19;;;;;;;0.90;0.63;;;22.40;66.70;;;;;;5036651;28;20211;-70
2022/09/10 12:41:45;;;;;;;0.57;0.43;;;22.40;66.70;;;;;;5018540;28;20227;-70
2022/09/10 12:44:28;;;;;;;1.75;0.80;;;22.40;66.70;;;;;;5018701;28;20215;-70
2022/09/10 12:47:16;;;;;;;1.20;0.60;;;22.50;66.80;;;;;;5019070;28;20207;-70
2022/09/10 12:49:56;;;;;;;0.55;0.55;;;22.50;66.70;;;;;;5017450;28;20293;-69
2022/09/10 12:52:49;;;;;;;0.98;0.60;;;22.40;66.70;;;;;;5018806;28;20175;-69
2022/09/10 12:56:02;;;;;;;0.55;0.43;;;22.50;66.90;;;;;;5010670;28;20215;-70
2022/09/10 12:59:18;;;;;;;1.75;0.55;;;22.50;66.90;;;;;;5021000;28;20219;-70
2022/09/10 13:01:47;;;;;;;0.68;0.45;;;22.50;66.90;;;;;;5035451;28;20210;-69
2022/09/10 13:04:31;;;;;;;0.50;0.50;;;22.40;66.90;;;;;;5036865;28;20171;-70
2022/09/10 13:07:32;;;;;;;0.60;0.60;;;22.40;67.10;;;;;;5037700;28;20295;-69
2022/09/10 13:10:16;;;;;;;0.88;0.70;;;22.50;67.30;;;;;;5021017;28;20211;-70
2022/09/10 13:12:44;;;;;;;0.80;0.60;;;22.40;67.20;;;;;;5036505;28;20236;-70
2022/09/10 13:15:21;;;;;;;0.50;0.50;;;22.50;67.60;;;;;;5037449;28;20229;-70
2022/09/10 13:17:47;;;;;;;0.57;0.55;;;22.40;67.30;;;;;;5036817;28;20203;-69
2022/09/10 13:20:19;;;;;;;0.52;0.50;;;22.40;67.30;;;;;;5020108;28;20628;-70
2022/09/10 13:22:56;;;;;;;0.50;0.40;;;22.50;67.40;;;;;;5020125;28;20171;-70
2022/09/10 13:25:35;;;;;;;1.25;0.60;;;22.40;67.30;;;;;;5020410;28;20194;-70
2022/09/10 13:28:23;;;;;;;1.08;0.70;;;22.40;67.20;;;;;;5021533;28;20294;-70
2022/09/10 13:31:12;;;;;;;1.13;0.70;;;22.40;67.20;;;;;;5020912;28;20198;-70
2022/09/10 13:33:51;;;;;;;0.60;0.57;;;22.40;67.10;;;;;;5019931;28;20186;-70